Walnut Grove, Minnesota
Current Conditions -  °F | °C
As of 7:52 PM on Friday 24 Oct 2014 (Local Time) from KTKC Reporting Station
Clear Clear  
Wind Chill: 64°   Ceiling: Unl
Heat Index: 64°   Visibility: 10mi
Dew Point: 41°   Wind: 6mph
Humidity: 43%   Direction: 260°W
Pressure: 29.92"   Gusts: NA
Location:  44.22°N, 95.47°W
Report Text: KTKC 250052Z AUTO 26005KT 10SM CLR 18/05 A2992 RMK AO2 T01800052
Loading
Personal Weather Stations






























Interactive Weather Map
Tropical Storm Tracking
New forecast layout! Learn more

10-Day Weather Forecast

Advertisements
Track Severe Weather on mobile